createdAt,value
2023-03-26T00:00:12.714Z,99912.97
2023-03-26T00:03:16.978Z,99904.00
2023-03-26T00:06:22.857Z,99888.16
2023-03-26T00:09:25.189Z,99887.56
2023-03-26T00:12:27.819Z,99884.50
2023-03-26T00:15:30.925Z,99906.50
2023-03-26T00:18:34.947Z,99910.41
2023-03-26T00:21:37.446Z,99907.53
2023-03-26T00:24:40.661Z,99907.13
2023-03-26T00:27:45.512Z,99889.19
2023-03-26T00:30:49.730Z,99908.66
2023-03-26T00:33:56.353Z,99907.53
2023-03-26T00:37:02.480Z,99900.66
2023-03-26T00:40:07.593Z,99915.97
2023-03-26T00:43:18.888Z,99887.84
2023-03-26T00:46:22.306Z,99904.25
2023-03-26T00:49:26.678Z,99879.16
2023-03-26T00:52:29.744Z,99895.59
2023-03-26T00:55:32.376Z,99887.59
2023-03-26T00:58:35.215Z,99858.66
2023-03-26T01:01:37.933Z,99869.91
2023-03-26T01:04:40.669Z,99872.34
2023-03-26T01:07:44.712Z,99845.81
2023-03-26T01:10:50.964Z,99861.13
2023-03-26T01:14:18.445Z,99862.84
2023-03-26T01:17:22.012Z,99862.63
2023-03-26T01:20:30.536Z,99850.72
2023-03-26T01:23:37.937Z,99872.44
2023-03-26T01:26:58.998Z,99847.94
2023-03-26T01:30:13.395Z,99870.69
2023-03-26T01:33:43.892Z,99872.31
2023-03-26T01:37:30.538Z,99872.09
2023-03-26T01:41:19.252Z,99861.66
2023-03-26T01:44:29.250Z,99882.41
2023-03-26T01:47:32.573Z,99862.84
2023-03-26T01:50:34.926Z,99886.22
2023-03-26T01:53:43.554Z,99881.25
2023-03-26T01:56:57.726Z,99878.69
2023-03-26T02:00:23.295Z,99870.47
2023-03-26T02:03:31.825Z,99878.59
2023-03-26T02:06:44.576Z,99888.28
2023-03-26T02:09:52.694Z,99894.09
2023-03-26T02:12:56.007Z,99898.56
2023-03-26T02:16:01.686Z,99907.50
2023-03-26T02:19:04.576Z,99897.31
2023-03-26T02:22:11.036Z,99898.44
2023-03-26T02:25:16.536Z,99889.78
2023-03-26T02:28:20.008Z,99908.28
2023-03-26T02:31:26.478Z,99913.53
2023-03-26T02:34:29.427Z,99898.72
2023-03-26T02:37:33.909Z,99885.03
2023-03-26T02:40:38.457Z,99887.50
2023-03-26T02:43:40.917Z,99895.66
2023-03-26T02:46:44.624Z,99880.94
2023-03-26T02:49:47.757Z,99866.53
2023-03-26T02:52:50.699Z,99876.09
2023-03-26T02:55:53.502Z,99873.63
2023-03-26T02:58:56.701Z,99844.94
2023-03-26T03:01:59.152Z,99865.63
2023-03-26T03:05:08.452Z,99868.47
2023-03-26T03:08:11.215Z,99873.22
2023-03-26T03:11:22.245Z,99860.03
2023-03-26T03:14:24.709Z,99876.81
2023-03-26T03:17:27.606Z,99864.03
2023-03-26T03:20:35.284Z,99882.78
2023-03-26T03:23:38.216Z,99880.94
2023-03-26T03:26:42.477Z,99879.25
2023-03-26T03:29:46.323Z,99880.53
2023-03-26T03:32:49.607Z,99876.50
2023-03-26T03:35:52.959Z,99864.87
2023-03-26T03:38:55.591Z,99858.81
2023-03-26T03:41:58.851Z,99858.91
2023-03-26T03:45:02.112Z,99869.31
2023-03-26T03:48:07.733Z,99892.63
2023-03-26T03:51:11.170Z,99890.12
2023-03-26T03:54:14.935Z,99897.06
2023-03-26T03:57:18.830Z,99887.88
2023-03-26T04:00:22.735Z,99882.41
2023-03-26T04:03:33.490Z,99897.34
2023-03-26T04:06:37.761Z,99897.13
2023-03-26T04:09:41.099Z,99908.44
2023-03-26T04:12:44.947Z,99910.66
2023-03-26T04:15:47.976Z,99911.81
2023-03-26T04:18:50.260Z,99910.84
2023-03-26T04:21:54.398Z,99923.09
2023-03-26T04:24:57.054Z,99905.62
2023-03-26T04:28:06.540Z,99903.97
2023-03-26T04:31:15.760Z,99893.44
2023-03-26T04:34:26.371Z,99902.34
2023-03-26T04:37:36.304Z,99897.75
2023-03-26T04:40:40.398Z,99897.44
2023-03-26T04:43:47.335Z,99900.16
2023-03-26T04:46:53.045Z,99883.66
2023-03-26T04:49:56.120Z,99914.03
2023-03-26T04:52:59.095Z,99914.22
2023-03-26T04:56:32.265Z,99900.97
2023-03-26T04:59:41.420Z,99905.47
2023-03-26T05:02:45.904Z,99920.91
2023-03-26T05:05:49.754Z,99908.06
2023-03-26T05:08:52.113Z,99904.72
2023-03-26T05:11:57.458Z,99896.44
2023-03-26T05:15:00.380Z,99901.56
2023-03-26T05:18:03.738Z,99898.81
2023-03-26T05:21:06.738Z,99902.75
2023-03-26T05:24:09.537Z,99899.25
2023-03-26T05:27:17.070Z,99897.81
2023-03-26T05:30:21.441Z,99890.62
2023-03-26T05:33:24.446Z,99904.66
2023-03-26T05:36:28.595Z,99890.03
2023-03-26T05:39:33.783Z,99891.19
2023-03-26T05:42:39.310Z,99868.97
2023-03-26T05:45:42.243Z,99883.06
2023-03-26T05:48:45.807Z,99895.19
2023-03-26T05:51:48.269Z,99879.34
2023-03-26T05:54:51.373Z,99898.31
2023-03-26T05:57:56.108Z,99901.50
2023-03-26T06:01:09.851Z,99901.81
2023-03-26T06:04:16.250Z,99881.69
2023-03-26T06:07:19.947Z,99892.63
2023-03-26T06:10:24.206Z,99896.03
2023-03-26T06:13:26.644Z,99885.09
2023-03-26T06:16:29.404Z,99875.94
2023-03-26T06:19:31.928Z,99870.63
2023-03-26T06:22:34.623Z,99887.63
2023-03-26T06:25:38.558Z,99888.97
2023-03-26T06:28:41.738Z,99862.44
2023-03-26T06:31:45.516Z,99876.41
2023-03-26T06:34:48.834Z,99882.00
2023-03-26T06:37:51.384Z,99866.13
2023-03-26T06:40:54.170Z,99882.03
2023-03-26T06:43:56.944Z,99873.66
2023-03-26T06:47:00.218Z,99868.16
2023-03-26T06:50:05.668Z,99884.00
2023-03-26T06:53:11.327Z,99896.06
2023-03-26T06:56:15.230Z,99870.38
2023-03-26T06:59:18.163Z,99883.44
2023-03-26T07:02:27.328Z,99884.16
2023-03-26T07:05:41.633Z,99884.31
2023-03-26T07:08:44.819Z,99876.94
2023-03-26T07:11:49.009Z,99874.31
2023-03-26T07:14:53.216Z,99878.19
2023-03-26T07:17:57.058Z,99872.03
2023-03-26T07:20:59.958Z,99864.41
2023-03-26T07:24:05.345Z,99875.00
2023-03-26T07:27:31.742Z,99875.88
2023-03-26T07:30:59.684Z,99884.75
2023-03-26T07:34:25.287Z,99890.03
2023-03-26T07:37:49.392Z,99893.03
2023-03-26T07:41:12.137Z,99892.59
2023-03-26T07:44:35.748Z,99880.91
2023-03-26T07:47:42.436Z,99900.59
2023-03-26T07:50:48.377Z,99892.91
2023-03-26T07:53:53.286Z,99890.41
2023-03-26T07:57:02.173Z,99881.75
2023-03-26T08:00:22.115Z,99891.34
2023-03-26T08:03:50.936Z,99879.19
2023-03-26T08:07:08.123Z,99896.25
2023-03-26T08:10:48.632Z,99890.78
2023-03-26T08:14:00.829Z,99898.59
2023-03-26T08:17:13.888Z,99897.62
2023-03-26T08:20:34.472Z,99904.63
2023-03-26T08:23:50.813Z,99895.28
2023-03-26T08:27:13.722Z,99885.69
2023-03-26T08:30:22.596Z,99872.31
2023-03-26T08:33:27.480Z,99890.78
2023-03-26T08:36:30.244Z,99889.75
2023-03-26T08:39:32.530Z,99872.50
2023-03-26T08:42:37.951Z,99881.41
2023-03-26T08:46:14.190Z,99882.44
2023-03-26T08:49:17.065Z,99889.44
2023-03-26T08:52:34.300Z,99861.91
2023-03-26T08:55:56.665Z,99879.19
2023-03-26T08:59:25.815Z,99882.09
2023-03-26T09:03:06.694Z,99869.03
2023-03-26T09:06:17.495Z,99876.78
2023-03-26T09:09:48.806Z,99860.69
2023-03-26T09:13:24.985Z,99863.81
2023-03-26T09:17:10.738Z,99866.34
2023-03-26T09:20:34.591Z,99867.19
2023-03-26T09:23:43.372Z,99861.78
2023-03-26T09:27:07.513Z,99854.94
2023-03-26T09:30:36.712Z,99846.53
2023-03-26T09:34:05.742Z,99838.38
2023-03-26T09:37:21.212Z,99844.09
2023-03-26T09:40:52.946Z,99815.44
2023-03-26T09:44:17.214Z,99814.75
2023-03-26T09:47:52.725Z,99832.28
2023-03-26T09:51:07.364Z,99813.00
2023-03-26T09:54:39.460Z,99819.19
2023-03-26T09:58:21.413Z,99814.50
2023-03-26T10:01:33.322Z,99816.28
2023-03-26T10:05:11.017Z,99804.69
2023-03-26T10:08:39.276Z,99799.06
2023-03-26T10:12:11.978Z,99783.50
2023-03-26T10:15:17.121Z,99766.25
2023-03-26T10:18:44.304Z,99771.81
2023-03-26T10:22:16.669Z,99753.22
2023-03-26T10:25:33.747Z,99771.53
2023-03-26T10:29:00.182Z,99760.22
2023-03-26T10:32:22.836Z,99777.84
2023-03-26T10:35:43.895Z,99764.22
2023-03-26T10:39:09.350Z,99780.72
2023-03-26T10:42:37.077Z,99784.75
2023-03-26T10:46:10.643Z,99784.75
2023-03-26T10:49:22.203Z,99774.28
2023-03-26T10:52:46.952Z,99757.06
2023-03-26T10:55:57.936Z,99762.53
2023-03-26T10:59:06.377Z,99760.91
2023-03-26T11:02:37.362Z,99760.00
2023-03-26T11:05:54.106Z,99744.41
2023-03-26T11:09:15.357Z,99734.50
2023-03-26T11:12:26.704Z,99705.31
2023-03-26T11:15:33.247Z,99719.81
2023-03-26T11:18:43.565Z,99717.16
2023-03-26T11:22:13.654Z,99685.97
2023-03-26T11:25:22.250Z,99692.06
2023-03-26T11:29:32.813Z,99693.63
2023-03-26T11:32:45.082Z,99685.34
2023-03-26T11:35:51.149Z,99680.06
2023-03-26T11:38:57.999Z,99659.06
2023-03-26T11:42:08.175Z,99668.50
2023-03-26T11:45:18.494Z,99654.78
2023-03-26T11:48:33.193Z,99635.78
2023-03-26T11:51:38.210Z,99645.66
2023-03-26T11:54:40.655Z,99651.81
2023-03-26T11:57:50.446Z,99628.59
2023-03-26T12:00:54.854Z,99614.09
2023-03-26T12:04:04.188Z,99613.47
2023-03-26T12:07:12.741Z,99597.25
2023-03-26T12:10:28.985Z,99595.63
2023-03-26T12:13:39.588Z,99583.94
2023-03-26T12:16:59.431Z,99576.84
2023-03-26T12:20:22.592Z,99575.91
2023-03-26T12:23:38.789Z,99555.88
2023-03-26T12:26:45.037Z,99551.16
2023-03-26T12:30:10.982Z,99555.59
2023-03-26T12:33:26.149Z,99561.41
2023-03-26T12:36:31.665Z,99543.28
2023-03-26T12:40:10.817Z,99522.75
2023-03-26T12:44:54.827Z,99524.56
2023-03-26T12:48:00.516Z,99509.69
2023-03-26T12:50:17.029Z,99503.34
2023-03-26T12:53:41.716Z,99498.81
2023-03-26T12:57:22.336Z,99491.25
2023-03-26T13:00:31.692Z,99501.66
2023-03-26T13:03:59.501Z,99491.34
2023-03-26T13:07:15.305Z,99482.91
2023-03-26T13:10:30.539Z,99473.56
2023-03-26T13:14:14.313Z,99478.69
2023-03-26T13:17:32.470Z,99469.16
2023-03-26T13:20:53.940Z,99456.84
2023-03-26T13:24:02.570Z,99453.59
2023-03-26T13:27:16.801Z,99447.06
2023-03-26T13:30:31.556Z,99448.56
2023-03-26T13:33:44.969Z,99423.22
2023-03-26T13:36:47.646Z,99431.31
2023-03-26T13:39:56.915Z,99435.06
2023-03-26T13:43:19.084Z,99422.37
2023-03-26T13:46:27.120Z,99409.22
2023-03-26T13:49:37.405Z,99419.31
2023-03-26T13:52:46.391Z,99405.69
2023-03-26T13:55:55.705Z,99400.41
2023-03-26T13:59:03.472Z,99401.16
2023-03-26T14:02:15.042Z,99396.34
2023-03-26T14:05:24.844Z,99371.19
2023-03-26T14:08:27.164Z,99378.16
2023-03-26T14:11:46.740Z,99376.53
2023-03-26T14:14:59.094Z,99363.75
2023-03-26T14:18:06.170Z,99359.03
2023-03-26T14:21:46.470Z,99361.47
2023-03-26T14:25:13.871Z,99370.97
2023-03-26T14:28:41.487Z,99364.72
2023-03-26T14:32:09.023Z,99363.66
2023-03-26T14:35:39.126Z,99344.25
2023-03-26T14:38:57.551Z,99349.22
2023-03-26T14:42:07.959Z,99352.53
2023-03-26T14:45:48.691Z,99344.28
2023-03-26T14:48:53.842Z,99332.53
2023-03-26T14:52:18.336Z,99328.53
2023-03-26T14:55:23.670Z,99312.34
2023-03-26T14:58:54.224Z,99318.06
2023-03-26T15:02:34.138Z,99313.50
2023-03-26T15:06:04.097Z,99303.91
2023-03-26T15:09:46.322Z,99291.81
2023-03-26T15:13:12.584Z,99295.69
2023-03-26T15:16:33.747Z,99284.41
2023-03-26T15:19:57.717Z,99290.66
2023-03-26T15:23:24.539Z,99284.53
2023-03-26T15:26:49.718Z,99275.53
2023-03-26T15:30:00.817Z,99272.44
2023-03-26T15:33:10.237Z,99257.97
2023-03-26T15:36:34.679Z,99255.81
2023-03-26T15:40:19.155Z,99256.94
2023-03-26T15:43:21.882Z,99259.59
2023-03-26T15:46:33.411Z,99254.34
2023-03-26T15:49:42.711Z,99260.34
2023-03-26T15:53:29.666Z,99234.50
2023-03-26T15:57:01.287Z,99242.69
2023-03-26T16:00:22.495Z,99246.75
2023-03-26T16:03:39.626Z,99232.28
2023-03-26T16:06:54.862Z,99211.06
2023-03-26T16:10:32.028Z,99211.81
2023-03-26T16:13:34.473Z,99205.09
2023-03-26T16:16:57.349Z,99206.72
2023-03-26T16:20:46.676Z,99194.50
2023-03-26T16:23:49.227Z,99190.75
2023-03-26T16:26:51.515Z,99176.13
2023-03-26T16:30:00.132Z,99171.22
2023-03-26T16:33:19.170Z,99168.72
2023-03-26T16:36:30.948Z,99176.16
2023-03-26T16:39:44.290Z,99153.06
2023-03-26T16:43:20.835Z,99171.59
2023-03-26T16:46:52.670Z,99178.31
2023-03-26T16:50:14.076Z,99181.75
2023-03-26T16:53:58.809Z,99179.59
2023-03-26T16:57:41.602Z,99177.44
2023-03-26T17:00:59.853Z,99171.22
2023-03-26T17:04:25.035Z,99178.56
2023-03-26T17:07:38.971Z,99180.38
2023-03-26T17:10:56.755Z,99159.91
2023-03-26T17:14:11.153Z,99176.81
2023-03-26T17:17:19.981Z,99186.41
2023-03-26T17:20:33.516Z,99182.22
2023-03-26T17:24:00.034Z,99182.16
2023-03-26T17:27:41.783Z,99187.66
2023-03-26T17:30:56.685Z,99179.97
2023-03-26T17:34:39.212Z,99177.81
2023-03-26T17:37:45.647Z,99179.88
2023-03-26T17:40:54.813Z,99171.56
2023-03-26T17:43:57.708Z,99163.44
2023-03-26T17:47:00.833Z,99172.38
2023-03-26T17:50:06.931Z,99185.09
2023-03-26T17:53:21.151Z,99163.69
2023-03-26T17:56:29.502Z,99182.31
2023-03-26T17:59:32.786Z,99166.06
2023-03-26T18:02:42.229Z,99181.41
2023-03-26T18:05:46.357Z,99182.19
2023-03-26T18:09:37.149Z,99160.44
2023-03-26T18:12:57.618Z,99179.78
2023-03-26T18:16:14.956Z,99183.03
2023-03-26T18:19:21.991Z,99177.19
2023-03-26T18:22:28.602Z,99173.19
2023-03-26T18:25:33.979Z,99172.81
2023-03-26T18:28:42.593Z,99171.56
2023-03-26T18:31:48.221Z,99172.03
2023-03-26T18:34:59.027Z,99168.78
2023-03-26T18:38:03.517Z,99160.28
2023-03-26T18:41:15.299Z,99144.38
2023-03-26T18:44:19.626Z,99146.72
2023-03-26T18:47:22.782Z,99150.72
2023-03-26T18:50:36.891Z,99123.97
2023-03-26T18:53:48.325Z,99126.75
2023-03-26T18:56:52.307Z,99132.91
2023-03-26T18:59:57.364Z,99125.22
2023-03-26T19:03:08.184Z,99105.34
2023-03-26T19:06:14.225Z,99109.50
2023-03-26T19:09:31.006Z,99094.44
2023-03-26T19:12:35.715Z,99113.47
2023-03-26T19:15:38.557Z,99102.28
2023-03-26T19:18:44.264Z,99100.66
2023-03-26T19:21:48.463Z,99096.59
2023-03-26T19:24:57.646Z,99097.31
2023-03-26T19:28:00.314Z,99086.31
2023-03-26T19:31:14.913Z,99088.09
2023-03-26T19:34:31.653Z,99087.28
2023-03-26T19:37:34.074Z,99081.16
2023-03-26T19:40:36.820Z,99084.00
2023-03-26T19:43:39.624Z,99055.09
2023-03-26T19:46:53.383Z,99060.81
2023-03-26T19:50:01.406Z,99056.37
2023-03-26T19:53:29.850Z,99044.62
2023-03-26T19:56:33.747Z,99030.75
2023-03-26T19:59:36.419Z,99018.22
2023-03-26T20:02:38.974Z,99020.91
2023-03-26T20:05:41.729Z,98999.41
2023-03-26T20:08:44.336Z,99011.59
2023-03-26T20:11:47.078Z,99004.72
2023-03-26T20:14:49.480Z,98992.63
2023-03-26T20:17:55.724Z,98992.31
2023-03-26T20:20:58.370Z,98976.88
2023-03-26T20:24:01.701Z,98966.66
2023-03-26T20:27:04.127Z,98978.19
2023-03-26T20:30:08.113Z,98964.19
2023-03-26T20:33:17.954Z,98959.69
2023-03-26T20:36:32.999Z,98942.19
2023-03-26T20:39:37.835Z,98947.53
2023-03-26T20:42:41.645Z,98937.41
2023-03-26T20:45:45.684Z,98926.25
2023-03-26T20:48:48.673Z,98928.41
2023-03-26T20:51:51.072Z,98947.97
2023-03-26T20:54:53.759Z,98920.94
2023-03-26T20:57:56.139Z,98932.53
2023-03-26T21:01:01.272Z,98932.44
2023-03-26T21:04:04.444Z,98921.63
2023-03-26T21:07:17.689Z,98918.13
2023-03-26T21:10:21.512Z,98916.16
2023-03-26T21:13:37.288Z,98905.31
2023-03-26T21:16:39.841Z,98907.81
2023-03-26T21:19:43.700Z,98890.41
2023-03-26T21:23:06.939Z,98909.09
2023-03-26T21:26:26.504Z,98909.59
2023-03-26T21:29:29.121Z,98918.22
2023-03-26T21:32:32.394Z,98945.44
2023-03-26T21:35:35.253Z,98938.31
2023-03-26T21:38:38.704Z,98957.28
2023-03-26T21:42:05.354Z,98968.31
2023-03-26T21:45:09.278Z,98966.22
2023-03-26T21:48:12.699Z,98969.12
2023-03-26T21:51:19.261Z,98967.66
2023-03-26T21:54:30.091Z,98971.25
2023-03-26T21:58:12.246Z,98953.81
2023-03-26T22:01:36.107Z,98973.81
2023-03-26T22:05:04.473Z,98951.84
2023-03-26T22:08:10.840Z,98964.06
2023-03-26T22:11:13.607Z,98958.00
2023-03-26T22:14:15.966Z,98957.06
2023-03-26T22:17:19.136Z,98935.81
2023-03-26T22:20:27.949Z,98946.47
2023-03-26T22:23:38.241Z,98928.84
2023-03-26T22:26:41.482Z,98936.53
2023-03-26T22:29:44.079Z,98940.94
2023-03-26T22:32:46.978Z,98943.00
2023-03-26T22:35:49.711Z,98939.88
2023-03-26T22:38:54.073Z,98921.47
2023-03-26T22:41:57.558Z,98935.75
2023-03-26T22:44:59.849Z,98928.66
2023-03-26T22:48:04.604Z,98913.31
2023-03-26T22:51:09.203Z,98925.19
2023-03-26T22:54:11.832Z,98899.50
2023-03-26T22:57:14.322Z,98912.50
2023-03-26T23:00:19.472Z,98889.72
2023-03-26T23:03:35.314Z,98892.41
2023-03-26T23:06:38.212Z,98892.06
2023-03-26T23:09:40.610Z,98885.12
2023-03-26T23:12:43.285Z,98884.09
2023-03-26T23:15:48.608Z,98886.69
2023-03-26T23:18:51.302Z,98874.13
2023-03-26T23:21:53.670Z,98866.19
2023-03-26T23:24:56.308Z,98861.06
2023-03-26T23:27:58.646Z,98845.50
2023-03-26T23:31:04.408Z,98846.91
2023-03-26T23:34:06.785Z,98849.81
2023-03-26T23:37:11.168Z,98860.25
2023-03-26T23:40:13.880Z,98839.66
2023-03-26T23:43:17.201Z,98846.06
2023-03-26T23:46:23.807Z,98852.09
2023-03-26T23:49:27.059Z,98846.44
2023-03-26T23:52:30.550Z,98812.56
2023-03-26T23:55:36.516Z,98808.22
2023-03-26T23:58:40.242Z,98800.56
